createdAt,value
2022-08-03T00:01:19.594Z,89.34
2022-08-03T00:04:06.984Z,89.60
2022-08-03T00:06:53.550Z,89.86
2022-08-03T00:09:40.053Z,90.60
2022-08-03T00:12:26.502Z,90.61
2022-08-03T00:15:16.355Z,90.41
2022-08-03T00:18:03.483Z,90.30
2022-08-03T00:20:49.767Z,90.76
2022-08-03T00:23:52.373Z,90.20
2022-08-03T00:26:39.335Z,90.51
2022-08-03T00:29:25.916Z,91.11
2022-08-03T00:32:12.174Z,91.39
2022-08-03T00:34:59.263Z,92.09
2022-08-03T00:37:45.561Z,92.70
2022-08-03T00:40:32.151Z,92.28
2022-08-03T00:43:18.622Z,91.88
2022-08-03T00:46:04.955Z,92.39
2022-08-03T00:48:52.172Z,93.04
2022-08-03T00:51:38.659Z,93.31
2022-08-03T00:54:25.687Z,93.16
2022-08-03T00:57:12.177Z,93.24
2022-08-03T01:00:00.162Z,93.96
2022-08-03T01:02:47.515Z,93.56
2022-08-03T01:05:44.299Z,93.60
2022-08-03T01:08:50.867Z,93.39
2022-08-03T01:12:00.659Z,93.68
2022-08-03T01:15:12.312Z,94.08
2022-08-03T01:18:10.446Z,94.48
2022-08-03T01:21:00.828Z,94.84
2022-08-03T01:24:18.286Z,95.01
2022-08-03T01:27:11.630Z,95.60
2022-08-03T01:30:09.064Z,96.30
2022-08-03T01:33:09.352Z,96.50
2022-08-03T01:36:10.214Z,97.38
2022-08-03T01:39:00.490Z,97.60
2022-08-03T01:41:53.793Z,98.14
2022-08-03T01:44:44.993Z,97.72
2022-08-03T01:47:32.728Z,97.96
2022-08-03T01:50:23.014Z,98.45
2022-08-03T01:53:11.417Z,98.67
2022-08-03T01:55:59.651Z,98.46
2022-08-03T01:58:48.276Z,97.16
2022-08-03T02:02:28.326Z,97.14
2022-08-03T02:04:45.270Z,97.53
2022-08-03T02:07:34.357Z,97.95
2022-08-03T02:10:35.538Z,98.04
2022-08-03T02:13:24.558Z,98.27
2022-08-03T02:16:12.799Z,98.61
2022-08-03T02:19:01.446Z,98.89
2022-08-03T02:21:56.721Z,99.16
2022-08-03T02:24:50.923Z,99.18
2022-08-03T02:27:43.746Z,99.63
2022-08-03T02:30:39.094Z,99.79
2022-08-03T02:33:30.246Z,99.92
2022-08-03T02:36:21.927Z,100.00
2022-08-03T02:39:11.680Z,100.00
2022-08-03T02:42:03.444Z,99.94
2022-08-03T02:44:51.306Z,100.00
2022-08-03T02:47:53.198Z,100.00
2022-08-03T02:50:44.435Z,100.00
2022-08-03T02:53:31.757Z,100.00
2022-08-03T02:56:19.163Z,100.00
2022-08-03T02:59:06.970Z,100.00
2022-08-03T03:01:55.374Z,100.00
2022-08-03T03:05:52.562Z,100.00
2022-08-03T03:07:51.998Z,100.00
2022-08-03T03:10:40.868Z,100.00
2022-08-03T03:13:30.356Z,100.00
2022-08-03T03:16:17.877Z,100.00
2022-08-03T03:19:04.901Z,100.00
2022-08-03T03:21:52.279Z,100.00
2022-08-03T03:24:41.528Z,100.00
2022-08-03T03:27:28.736Z,100.00
2022-08-03T03:30:16.447Z,100.00
2022-08-03T03:33:02.947Z,100.00
2022-08-03T03:35:51.553Z,100.00
2022-08-03T03:38:38.025Z,100.00
2022-08-03T03:41:24.550Z,100.00
2022-08-03T03:44:11.205Z,100.00
2022-08-03T03:46:58.148Z,100.00
2022-08-03T03:49:45.474Z,100.00
2022-08-03T03:52:32.809Z,100.00
2022-08-03T03:55:19.278Z,100.00
2022-08-03T03:58:06.297Z,100.00
2022-08-03T04:00:53.866Z,100.00
2022-08-03T04:03:40.339Z,100.00
2022-08-03T04:06:45.255Z,100.00
2022-08-03T04:09:53.616Z,100.00
2022-08-03T04:12:50.433Z,100.00
2022-08-03T04:15:39.762Z,100.00
2022-08-03T04:18:29.736Z,100.00
2022-08-03T04:21:19.227Z,100.00
2022-08-03T04:24:09.007Z,100.00
2022-08-03T04:26:57.702Z,100.00
2022-08-03T04:29:49.183Z,100.00
2022-08-03T04:32:40.882Z,100.00
2022-08-03T04:36:01.926Z,100.00
2022-08-03T04:38:51.138Z,100.00
2022-08-03T04:42:07.212Z,100.00
2022-08-03T04:44:47.725Z,100.00
2022-08-03T04:47:34.739Z,100.00
2022-08-03T04:50:21.982Z,100.00
2022-08-03T04:53:23.570Z,100.00
2022-08-03T04:56:10.081Z,100.00
2022-08-03T04:58:56.546Z,100.00
2022-08-03T05:01:43.444Z,100.00
2022-08-03T05:04:30.217Z,98.34
2022-08-03T05:07:24.153Z,94.75
2022-08-03T05:10:14.886Z,87.89
2022-08-03T05:13:02.808Z,79.56
2022-08-03T05:15:49.397Z,70.80
2022-08-03T05:18:36.043Z,63.99
2022-08-03T05:21:22.714Z,60.55
2022-08-03T05:24:08.926Z,55.95
2022-08-03T05:26:55.190Z,54.91
2022-08-03T05:29:41.852Z,53.28
2022-08-03T05:32:28.467Z,51.81
2022-08-03T05:36:02.021Z,50.62
2022-08-03T05:38:28.298Z,49.99
2022-08-03T05:41:22.974Z,50.22
2022-08-03T05:44:10.639Z,52.31
2022-08-03T05:46:57.019Z,52.35
2022-08-03T05:49:43.655Z,55.36
2022-08-03T05:52:30.682Z,58.08
2022-08-03T05:55:17.701Z,57.77
2022-08-03T05:58:04.331Z,61.83
2022-08-03T06:00:51.353Z,63.98
2022-08-03T06:03:37.771Z,65.80
2022-08-03T06:06:25.369Z,67.38
2022-08-03T06:09:13.765Z,69.18
2022-08-03T06:12:00.229Z,70.83
2022-08-03T06:14:46.786Z,69.97
2022-08-03T06:17:37.728Z,72.56
2022-08-03T06:20:27.387Z,72.27
2022-08-03T06:23:17.711Z,72.33
2022-08-03T06:26:04.630Z,73.30
2022-08-03T06:28:51.367Z,73.78
2022-08-03T06:31:39.678Z,73.60
2022-08-03T06:34:33.596Z,72.84
2022-08-03T06:37:21.570Z,74.12
2022-08-03T06:40:08.408Z,71.20
2022-08-03T06:42:55.451Z,71.76
2022-08-03T06:45:42.453Z,67.59
2022-08-03T06:48:28.942Z,69.66
2022-08-03T06:51:15.419Z,70.30
2022-08-03T06:54:01.720Z,70.44
2022-08-03T06:56:48.592Z,69.21
2022-08-03T07:00:09.141Z,66.19
2022-08-03T07:02:41.484Z,65.68
2022-08-03T07:05:28.367Z,64.15
2022-08-03T07:08:15.618Z,65.32
2022-08-03T07:11:01.921Z,62.87
2022-08-03T07:13:48.446Z,64.02
2022-08-03T07:16:35.027Z,60.50
2022-08-03T07:19:21.652Z,59.43
2022-08-03T07:22:08.750Z,56.81
2022-08-03T07:24:56.745Z,56.81
2022-08-03T07:27:46.023Z,55.05
2022-08-03T07:30:36.526Z,56.41
2022-08-03T07:33:22.763Z,53.80
2022-08-03T07:36:09.089Z,53.98
2022-08-03T07:38:55.401Z,54.99
2022-08-03T07:41:41.546Z,54.25
2022-08-03T07:44:28.245Z,54.84
2022-08-03T07:47:25.815Z,54.57
2022-08-03T07:50:22.984Z,54.42
2022-08-03T07:53:09.494Z,53.97
2022-08-03T07:55:56.921Z,52.16
2022-08-03T07:58:43.439Z,51.82
2022-08-03T08:01:29.841Z,52.39
2022-08-03T08:04:16.796Z,51.09
2022-08-03T08:07:03.328Z,50.87
2022-08-03T08:09:49.585Z,52.39
2022-08-03T08:12:36.406Z,50.60
2022-08-03T08:15:23.358Z,52.26
2022-08-03T08:18:09.805Z,48.15
2022-08-03T08:20:56.213Z,47.81
2022-08-03T08:23:46.248Z,47.08
2022-08-03T08:26:44.180Z,47.43
2022-08-03T08:29:30.654Z,47.49
2022-08-03T08:32:17.025Z,47.37
2022-08-03T08:35:08.006Z,47.25
2022-08-03T08:37:54.622Z,46.20
2022-08-03T08:40:40.946Z,46.63
2022-08-03T08:43:28.164Z,46.31
2022-08-03T08:46:22.837Z,45.23
2022-08-03T08:49:12.112Z,45.02
2022-08-03T08:52:01.014Z,44.62
2022-08-03T08:54:47.914Z,43.47
2022-08-03T08:57:43.564Z,40.41
2022-08-03T09:00:31.120Z,42.04
2022-08-03T09:03:26.191Z,41.78
2022-08-03T09:06:16.885Z,40.37
2022-08-03T09:09:03.542Z,39.77
2022-08-03T09:11:52.432Z,40.64
2022-08-03T09:15:14.736Z,40.53
2022-08-03T09:18:03.156Z,39.39
2022-08-03T09:20:49.557Z,39.35
2022-08-03T09:24:02.219Z,39.86
2022-08-03T09:26:52.238Z,40.90
2022-08-03T09:29:40.343Z,38.78
2022-08-03T09:32:26.957Z,40.74
2022-08-03T09:35:14.760Z,38.33
2022-08-03T09:38:26.098Z,37.55
2022-08-03T09:41:18.685Z,37.24
2022-08-03T09:44:05.141Z,37.90
2022-08-03T09:46:53.941Z,37.80
2022-08-03T09:49:41.609Z,37.92
2022-08-03T09:52:50.019Z,36.89
2022-08-03T09:56:32.746Z,37.64
2022-08-03T09:59:00.299Z,37.02
2022-08-03T10:01:46.601Z,36.92
2022-08-03T10:04:33.779Z,37.10
2022-08-03T10:07:22.664Z,36.44
2022-08-03T10:10:29.060Z,37.54
2022-08-03T10:13:19.102Z,36.16
2022-08-03T10:16:22.021Z,36.81
2022-08-03T10:19:11.509Z,36.06
2022-08-03T10:22:04.120Z,36.76
2022-08-03T10:24:59.820Z,36.43
2022-08-03T10:27:50.827Z,35.91
2022-08-03T10:30:41.054Z,36.22
2022-08-03T10:33:51.834Z,34.99
2022-08-03T10:36:39.980Z,35.28
2022-08-03T10:39:29.679Z,35.66
2022-08-03T10:42:16.176Z,35.58
2022-08-03T10:45:09.562Z,34.54
2022-08-03T10:47:57.591Z,34.08
2022-08-03T10:50:44.304Z,34.89
2022-08-03T10:53:40.252Z,37.05
2022-08-03T10:56:51.349Z,34.10
2022-08-03T10:59:46.652Z,35.12
2022-08-03T11:03:04.179Z,33.88
2022-08-03T11:05:52.175Z,33.77
2022-08-03T11:08:38.612Z,33.23
2022-08-03T11:11:26.420Z,33.58
2022-08-03T11:14:21.381Z,33.12
2022-08-03T11:17:14.189Z,33.84
2022-08-03T11:20:01.226Z,34.39
2022-08-03T11:22:53.971Z,33.88
2022-08-03T11:26:08.419Z,34.03
2022-08-03T11:29:27.970Z,34.05
2022-08-03T11:32:40.159Z,34.73
2022-08-03T11:35:35.914Z,33.80
2022-08-03T11:38:24.587Z,32.54
2022-08-03T11:41:44.885Z,32.20
2022-08-03T11:44:50.779Z,32.43
2022-08-03T11:47:50.658Z,32.87
2022-08-03T11:50:37.981Z,31.37
2022-08-03T11:53:24.472Z,31.39
2022-08-03T11:56:12.998Z,31.76
2022-08-03T11:59:18.568Z,31.30
2022-08-03T12:02:16.867Z,31.62
2022-08-03T12:05:03.635Z,32.38
2022-08-03T12:08:04.284Z,35.07
2022-08-03T12:10:54.306Z,33.37
2022-08-03T12:14:35.821Z,31.13
2022-08-03T12:16:54.415Z,31.08
2022-08-03T12:19:44.672Z,33.18
2022-08-03T12:22:37.221Z,32.19
2022-08-03T12:25:38.623Z,32.16
2022-08-03T12:28:36.972Z,31.01
2022-08-03T12:31:25.057Z,29.63
2022-08-03T12:34:12.062Z,29.64
2022-08-03T12:36:59.232Z,29.35
2022-08-03T12:40:02.056Z,30.49
2022-08-03T12:42:50.495Z,29.47
2022-08-03T12:45:36.962Z,29.55
2022-08-03T12:48:23.560Z,29.32
2022-08-03T12:51:14.218Z,29.63
2022-08-03T12:54:02.051Z,29.12
2022-08-03T12:57:08.335Z,29.57
2022-08-03T12:59:55.906Z,30.17
2022-08-03T13:02:46.352Z,29.64
2022-08-03T13:05:44.559Z,30.19
2022-08-03T13:08:30.942Z,29.52
2022-08-03T13:11:53.628Z,31.12
2022-08-03T13:14:33.370Z,29.84
2022-08-03T13:17:20.132Z,29.53
2022-08-03T13:20:07.308Z,29.00
2022-08-03T13:22:56.021Z,29.24
2022-08-03T13:25:55.262Z,29.21
2022-08-03T13:28:42.622Z,29.16
2022-08-03T13:31:29.290Z,31.75
2022-08-03T13:34:18.703Z,30.46
2022-08-03T13:37:10.217Z,28.81
2022-08-03T13:39:59.027Z,28.22
2022-08-03T13:42:47.189Z,28.61
2022-08-03T13:45:33.730Z,28.41
2022-08-03T13:48:35.785Z,29.09
2022-08-03T13:51:23.478Z,28.76
2022-08-03T13:54:09.878Z,28.51
2022-08-03T13:58:01.146Z,28.38
2022-08-03T14:00:04.562Z,27.98
2022-08-03T14:02:50.790Z,29.27
2022-08-03T14:05:38.597Z,28.28
2022-08-03T14:08:25.134Z,28.87
2022-08-03T14:11:12.068Z,28.13
2022-08-03T14:13:59.120Z,28.60
2022-08-03T14:16:45.652Z,28.63
2022-08-03T14:19:52.533Z,28.78
2022-08-03T14:22:40.280Z,29.63
2022-08-03T14:25:26.860Z,28.67
2022-08-03T14:28:13.333Z,29.13
2022-08-03T14:30:59.911Z,28.45
2022-08-03T14:33:46.474Z,28.22
2022-08-03T14:36:33.024Z,28.58
2022-08-03T14:39:19.201Z,29.60
2022-08-03T14:42:06.091Z,30.68
2022-08-03T14:44:52.255Z,28.57
2022-08-03T14:50:10.361Z,28.64
2022-08-03T14:50:50.730Z,28.31
2022-08-03T14:53:37.792Z,28.55
2022-08-03T14:56:24.114Z,28.93
2022-08-03T14:59:10.515Z,28.41
2022-08-03T15:02:06.230Z,28.93
2022-08-03T15:04:54.202Z,28.67
2022-08-03T15:07:40.526Z,30.26
2022-08-03T15:10:27.190Z,28.39
2022-08-03T15:13:31.046Z,28.76
2022-08-03T15:16:17.391Z,28.99
2022-08-03T15:19:04.898Z,28.11
2022-08-03T15:22:10.237Z,28.80
2022-08-03T15:24:59.536Z,28.59
2022-08-03T15:28:04.094Z,28.50
2022-08-03T15:30:54.665Z,29.05
2022-08-03T15:33:41.100Z,28.59
2022-08-03T15:36:27.743Z,28.68
2022-08-03T15:39:14.316Z,28.48
2022-08-03T15:42:00.860Z,29.03
2022-08-03T15:44:47.179Z,29.24
2022-08-03T15:47:33.447Z,29.29
2022-08-03T15:50:19.885Z,29.12
2022-08-03T15:53:06.203Z,28.78
2022-08-03T15:55:52.448Z,28.92
2022-08-03T15:59:03.435Z,29.39
2022-08-03T16:01:48.461Z,30.19
2022-08-03T16:04:34.999Z,30.08
2022-08-03T16:07:41.373Z,30.60
2022-08-03T16:10:48.127Z,30.31
2022-08-03T16:14:13.119Z,29.82
2022-08-03T16:16:41.558Z,29.26
2022-08-03T16:19:32.824Z,30.05
2022-08-03T16:22:20.179Z,29.71
2022-08-03T16:25:13.769Z,29.64
2022-08-03T16:28:08.047Z,29.68
2022-08-03T16:30:59.867Z,29.50
2022-08-03T16:33:46.145Z,30.09
2022-08-03T16:36:34.913Z,30.10
2022-08-03T16:39:21.461Z,30.66
2022-08-03T16:42:08.004Z,31.80
2022-08-03T16:44:54.616Z,31.75
2022-08-03T16:47:40.857Z,31.88
2022-08-03T16:50:27.391Z,30.34
2022-08-03T16:53:16.788Z,29.74
2022-08-03T16:56:09.530Z,29.06
2022-08-03T16:58:56.646Z,29.99
2022-08-03T17:01:46.203Z,29.84
2022-08-03T17:04:33.995Z,30.07
2022-08-03T17:07:21.526Z,30.65
2022-08-03T17:10:09.270Z,29.96
2022-08-03T17:12:55.582Z,30.00
2022-08-03T17:15:57.939Z,30.34
2022-08-03T17:19:02.091Z,33.70
2022-08-03T17:22:09.092Z,33.46
2022-08-03T17:24:58.262Z,31.70
2022-08-03T17:28:48.490Z,32.01
2022-08-03T17:31:23.188Z,30.80
2022-08-03T17:34:19.405Z,31.42
2022-08-03T17:37:06.417Z,32.43
2022-08-03T17:40:11.619Z,30.83
2022-08-03T17:44:13.510Z,31.06
2022-08-03T17:46:12.171Z,30.93
2022-08-03T17:48:58.608Z,30.11
2022-08-03T17:51:57.554Z,32.33
2022-08-03T17:55:57.277Z,31.02
2022-08-03T17:58:25.657Z,32.20
2022-08-03T18:02:06.150Z,30.93
2022-08-03T18:04:45.214Z,32.49
2022-08-03T18:07:47.065Z,33.75
2022-08-03T18:10:36.365Z,34.71
2022-08-03T18:14:01.103Z,35.71
2022-08-03T18:17:06.132Z,36.34
2022-08-03T18:20:02.028Z,36.21
2022-08-03T18:22:55.571Z,34.21
2022-08-03T18:25:49.551Z,35.01
2022-08-03T18:28:40.874Z,37.34
2022-08-03T18:31:59.486Z,36.47
2022-08-03T18:34:35.168Z,37.75
2022-08-03T18:37:25.574Z,36.63
2022-08-03T18:40:13.166Z,36.79
2022-08-03T18:43:08.025Z,38.30
2022-08-03T18:45:58.344Z,38.20
2022-08-03T18:48:59.430Z,40.76
2022-08-03T18:52:03.621Z,40.77
2022-08-03T18:55:14.053Z,42.47
2022-08-03T18:58:19.717Z,43.96
2022-08-03T19:01:57.948Z,43.58
2022-08-03T19:04:29.335Z,44.67
2022-08-03T19:07:26.059Z,44.67
2022-08-03T19:10:15.668Z,45.92
2022-08-03T19:13:30.760Z,46.38
2022-08-03T19:16:35.846Z,46.99
2022-08-03T19:19:27.195Z,46.26
2022-08-03T19:22:32.929Z,47.46
2022-08-03T19:25:19.629Z,48.35
2022-08-03T19:28:07.134Z,49.30
2022-08-03T19:30:56.558Z,49.38
2022-08-03T19:33:57.578Z,50.00
2022-08-03T19:36:44.994Z,50.70
2022-08-03T19:39:33.714Z,51.51
2022-08-03T19:42:27.901Z,51.87
2022-08-03T19:45:21.272Z,51.20
2022-08-03T19:48:11.686Z,51.97
2022-08-03T19:50:59.092Z,51.36
2022-08-03T19:53:49.237Z,52.82
2022-08-03T19:56:41.944Z,52.97
2022-08-03T19:59:29.565Z,53.58
2022-08-03T20:02:17.487Z,52.84
2022-08-03T20:08:21.082Z,54.14
2022-08-03T20:11:09.003Z,54.74
2022-08-03T20:13:58.144Z,55.83
2022-08-03T20:16:45.491Z,55.68
2022-08-03T20:19:35.098Z,55.81
2022-08-03T20:22:27.859Z,55.99
2022-08-03T20:25:20.816Z,57.08
2022-08-03T20:28:14.120Z,57.49
2022-08-03T20:31:02.440Z,57.03
2022-08-03T20:33:49.362Z,58.03
2022-08-03T20:36:36.623Z,58.48
2022-08-03T20:39:24.813Z,58.60
2022-08-03T20:42:14.087Z,58.24
2022-08-03T20:45:13.827Z,59.30
2022-08-03T20:48:15.999Z,60.10
2022-08-03T20:51:19.349Z,60.53
2022-08-03T20:54:23.052Z,60.65
2022-08-03T20:57:14.449Z,60.38
2022-08-03T21:00:07.704Z,60.21
2022-08-03T21:02:54.571Z,61.27
2022-08-03T21:05:51.135Z,61.80
2022-08-03T21:08:46.924Z,62.62
2022-08-03T21:11:50.578Z,63.27
2022-08-03T21:13:08.515Z,53.60
2022-08-03T21:14:52.511Z,63.97
2022-08-03T21:17:46.911Z,63.91
2022-08-03T21:20:34.749Z,63.71
2022-08-03T21:23:40.240Z,63.17
2022-08-03T21:26:32.983Z,63.48
2022-08-03T21:29:20.154Z,63.62
2022-08-03T21:32:07.532Z,63.79
2022-08-03T21:34:55.030Z,64.39
2022-08-03T21:37:42.720Z,64.81
2022-08-03T21:40:29.141Z,64.88
2022-08-03T21:43:15.846Z,65.19
2022-08-03T21:46:05.390Z,65.75
2022-08-03T21:48:56.302Z,66.11
2022-08-03T21:51:42.887Z,66.74
2022-08-03T21:54:35.016Z,66.88
2022-08-03T21:57:25.113Z,66.96
2022-08-03T22:00:17.785Z,68.04
2022-08-03T22:03:17.397Z,68.00
2022-08-03T22:06:05.109Z,68.49
2022-08-03T22:08:52.827Z,69.06
2022-08-03T22:11:39.274Z,69.45
2022-08-03T22:14:25.759Z,69.47
2022-08-03T22:17:12.895Z,69.06
2022-08-03T22:20:19.456Z,70.13
2022-08-03T22:23:07.178Z,70.14
2022-08-03T22:25:56.890Z,70.91
2022-08-03T22:28:43.801Z,70.90
2022-08-03T22:31:57.434Z,71.62
2022-08-03T22:34:42.436Z,71.65
2022-08-03T22:37:31.588Z,72.29
2022-08-03T22:40:18.079Z,72.15
2022-08-03T22:43:06.044Z,72.51
2022-08-03T22:46:10.540Z,73.65
2022-08-03T22:48:59.698Z,73.33
2022-08-03T22:51:47.172Z,73.76
2022-08-03T22:54:35.348Z,73.54
2022-08-03T22:57:22.150Z,73.76
2022-08-03T23:00:11.579Z,74.28
2022-08-03T23:03:00.219Z,74.81
2022-08-03T23:06:02.367Z,75.16
2022-08-03T23:08:50.386Z,74.99
2022-08-03T23:11:45.768Z,75.79
2022-08-03T23:14:38.451Z,76.45
2022-08-03T23:17:29.857Z,76.46
2022-08-03T23:20:16.914Z,77.17
2022-08-03T23:23:05.064Z,76.80
2022-08-03T23:25:51.954Z,76.46
2022-08-03T23:28:39.269Z,76.28
2022-08-03T23:31:31.470Z,76.83
2022-08-03T23:34:36.651Z,76.96
2022-08-03T23:37:24.908Z,77.57
2022-08-03T23:40:13.709Z,78.10
2022-08-03T23:43:01.891Z,78.68
2022-08-03T23:45:49.474Z,79.68
2022-08-03T23:48:36.002Z,80.27
2022-08-03T23:51:31.454Z,81.06
2022-08-03T23:54:23.713Z,80.79
2022-08-03T23:57:20.730Z,80.55
